Time;durP1;ratioP1;P1;durP2;ratioP2;P2;SDS_P1;SDS_P2;PMS_P1;PMS_P2;Temp;Humidity;BMP_temperature;BMP_pressure;BME280_temperature;BME280_humidity;BME280_pressure;Samples;Min_cycle;Max_cycle;Signal;HPM_P1;HPM_P2
2023/07/18 00:00:32;;;;;;;5.80;1.38;;;17.80;82.40;;;;;;5041588;28;20396;-68
2023/07/18 00:02:58;;;;;;;5.25;1.20;;;17.80;99.90;;;;;;5040307;28;20417;-69
2023/07/18 00:05:24;;;;;;;5.95;1.42;;;17.70;99.90;;;;;;5044659;28;20453;-69
2023/07/18 00:07:49;;;;;;;7.17;1.50;;;17.60;1.00;;;;;;5041489;28;20394;-69
2023/07/18 00:10:18;;;;;;;5.80;1.40;;;17.50;1.00;;;;;;5041218;28;20428;-69
2023/07/18 00:12:44;;;;;;;5.70;1.30;;;17.50;1.00;;;;;;5040226;28;20795;-69
2023/07/18 00:15:09;;;;;;;7.15;1.60;;;17.50;1.00;;;;;;5042285;28;20443;-69
2023/07/18 00:17:36;;;;;;;5.70;1.20;;;17.50;1.00;;;;;;5041237;28;20418;-68
2023/07/18 00:20:10;;;;;;;6.40;1.20;;;17.60;1.00;;;;;;5040046;28;20418;-69
2023/07/18 00:22:36;;;;;;;5.20;1.00;;;17.60;1.00;;;;;;5040365;28;20843;-69
2023/07/18 00:25:02;;;;;;;5.82;1.33;;;17.50;1.00;;;;;;5041200;28;20390;-69
2023/07/18 00:27:28;;;;;;;6.55;1.13;;;17.50;1.00;;;;;;5024314;28;20413;-69
2023/07/18 00:29:55;;;;;;;5.70;1.30;;;17.50;99.90;;;;;;5040609;28;20954;-69
2023/07/18 00:32:22;;;;;;;5.68;1.42;;;17.50;1.00;;;;;;5041856;28;20428;-69
2023/07/18 00:34:56;;;;;;;6.32;1.30;;;17.40;1.00;;;;;;5038710;28;20385;-69
2023/07/18 00:37:22;;;;;;;8.05;1.60;;;17.30;1.00;;;;;;5041395;28;20377;-69
2023/07/18 00:39:48;;;;;;;7.30;1.30;;;17.30;1.00;;;;;;5039936;28;20445;-69
2023/07/18 00:42:14;;;;;;;5.53;1.20;;;17.40;1.00;;;;;;5043132;28;20416;-69
2023/07/18 00:44:39;;;;;;;6.00;1.30;;;17.40;99.90;;;;;;5043565;28;20838;-69
2023/07/18 00:47:07;;;;;;;6.25;1.40;;;17.30;99.90;;;;;;5040651;28;20759;-69
2023/07/18 00:49:33;;;;;;;5.70;1.25;;;17.20;99.90;;;;;;5041905;28;20485;-69
2023/07/18 00:52:00;;;;;;;6.38;1.20;;;17.10;99.90;;;;;;5041156;28;20389;-69
2023/07/18 00:54:27;;;;;;;6.55;1.30;;;17.10;1.00;;;;;;5041599;28;20421;-69
2023/07/18 00:56:54;;;;;;;5.75;1.52;;;17.10;1.00;;;;;;5040237;28;20391;-69
2023/07/18 00:59:21;;;;;;;6.20;1.70;;;17.10;1.00;;;;;;5039760;28;20403;-69
2023/07/18 01:01:46;;;;;;;6.10;1.30;;;17.20;1.00;;;;;;5045067;28;20969;-69
2023/07/18 01:04:13;;;;;;;7.40;1.70;;;17.20;1.00;;;;;;5044721;28;20405;-69
2023/07/18 01:06:39;;;;;;;5.40;1.20;;;17.30;1.00;;;;;;5043815;28;20470;-69
2023/07/18 01:09:05;;;;;;;7.15;1.60;;;17.20;1.00;;;;;;5040095;28;20426;-69
2023/07/18 01:11:33;;;;;;;7.18;1.50;;;17.20;99.90;;;;;;5044393;28;20391;-69
2023/07/18 01:14:00;;;;;;;7.40;1.20;;;17.20;99.90;;;;;;5041710;28;20390;-69
2023/07/18 01:16:25;;;;;;;7.05;1.40;;;17.20;99.90;;;;;;5042387;28;20395;-69
2023/07/18 01:18:52;;;;;;;6.30;1.50;;;17.20;99.90;;;;;;5044319;28;20474;-69
2023/07/18 01:21:21;;;;;;;5.88;1.23;;;17.40;99.90;;;;;;5042469;28;20445;-69
2023/07/18 01:23:47;;;;;;;6.40;1.30;;;17.50;77.60;;;;;;5044988;28;20387;-69
2023/07/18 01:26:13;;;;;;;6.67;1.30;;;17.50;39.50;;;;;;5047235;28;20389;-69
2023/07/18 01:28:39;;;;;;;5.80;1.20;;;17.40;99.40;;;;;;5041017;28;20430;-69
2023/07/18 01:31:05;;;;;;;5.23;0.93;;;17.30;99.90;;;;;;5037944;28;20422;-69
2023/07/18 01:33:31;;;;;;;5.80;1.30;;;17.20;99.90;;;;;;5042221;28;20409;-69
2023/07/18 01:35:57;;;;;;;5.93;1.50;;;17.10;99.90;;;;;;5042220;28;20857;-68
2023/07/18 01:38:29;;;;;;;6.70;1.40;;;17.10;99.90;;;;;;5039078;28;20399;-69
2023/07/18 01:40:55;;;;;;;6.50;1.50;;;17.00;1.00;;;;;;5040117;28;20400;-68
2023/07/18 01:43:21;;;;;;;5.47;1.33;;;17.00;1.00;;;;;;5040608;28;20642;-68
2023/07/18 01:45:46;;;;;;;5.40;1.20;;;16.90;99.90;;;;;;5038329;28;20389;-69
2023/07/18 01:48:12;;;;;;;7.90;1.63;;;16.80;31.90;;;;;;5044721;28;20405;-69
2023/07/18 01:50:37;;;;;;;5.93;1.17;;;16.70;99.90;;;;;;5042361;28;20387;-69
2023/07/18 01:53:03;;;;;;;6.20;1.43;;;16.70;99.90;;;;;;5022492;28;20773;-69
2023/07/18 01:55:29;;;;;;;6.55;1.50;;;16.80;99.90;;;;;;5040331;28;20392;-69
2023/07/18 01:57:54;;;;;;;6.03;1.55;;;16.80;99.90;;;;;;5041222;28;20488;-69
2023/07/18 02:00:20;;;;;;;6.25;1.30;;;16.70;99.90;;;;;;5042356;28;20413;-69
2023/07/18 02:02:47;;;;;;;5.53;1.50;;;16.70;99.90;;;;;;5042430;28;20421;-69
2023/07/18 02:05:18;;;;;;;5.63;1.42;;;16.80;99.90;;;;;;5040343;28;20436;-69
2023/07/18 02:07:44;;;;;;;6.40;1.50;;;16.70;99.90;;;;;;5038269;28;20395;-69
2023/07/18 02:10:10;;;;;;;9.50;1.60;;;16.50;99.90;;;;;;5043520;28;20451;-69
2023/07/18 02:12:35;;;;;;;5.65;1.50;;;16.50;1.00;;;;;;5047636;28;20480;-68
2023/07/18 02:15:05;;;;;;;6.60;1.57;;;16.50;99.90;;;;;;5048867;28;20428;-68
2023/07/18 02:17:32;;;;;;;5.72;1.30;;;16.50;1.00;;;;;;5045950;28;20483;-68
2023/07/18 02:19:57;;;;;;;8.10;1.40;;;16.40;1.00;;;;;;5048608;28;20394;-68
2023/07/18 02:22:23;;;;;;;5.50;1.40;;;16.40;1.00;;;;;;5048190;28;20425;-68
2023/07/18 02:24:48;;;;;;;6.20;1.40;;;16.40;1.00;;;;;;5048423;28;20424;-68
2023/07/18 02:27:14;;;;;;;7.20;1.40;;;16.40;1.00;;;;;;5049197;28;20901;-68
2023/07/18 02:29:40;;;;;;;7.07;1.70;;;16.50;1.00;;;;;;5048920;28;20762;-68
2023/07/18 02:32:05;;;;;;;5.90;1.10;;;16.60;99.90;;;;;;5048408;28;20492;-68
2023/07/18 02:34:31;;;;;;;6.97;1.50;;;16.40;1.00;;;;;;5048348;28;20385;-68
2023/07/18 02:36:57;;;;;;;6.90;1.50;;;16.30;1.00;;;;;;5048126;28;20397;-68
2023/07/18 02:39:23;;;;;;;5.72;1.70;;;16.20;99.90;;;;;;5048344;28;20397;-69
2023/07/18 02:41:48;;;;;;;5.70;1.40;;;16.20;99.90;;;;;;5048107;28;20482;-69
2023/07/18 02:44:14;;;;;;;6.37;1.80;;;16.20;1.00;;;;;;5048800;28;20890;-69
2023/07/18 02:46:39;;;;;;;5.87;1.27;;;16.30;1.00;;;;;;5048018;28;20402;-69
2023/07/18 02:49:05;;;;;;;6.97;1.55;;;16.30;1.00;;;;;;5048307;28;20393;-68
2023/07/18 02:51:30;;;;;;;6.18;1.65;;;16.20;99.90;;;;;;5044588;28;20386;-69
2023/07/18 02:53:56;;;;;;;7.00;2.08;;;16.20;42.10;;;;;;5048280;28;20461;-69
2023/07/18 02:56:21;;;;;;;6.57;1.30;;;16.10;1.00;;;;;;5047546;28;20395;-69
2023/07/18 02:58:49;;;;;;;6.03;1.50;;;16.00;1.00;;;;;;5047828;28;20754;-69
2023/07/18 03:01:14;;;;;;;6.70;1.52;;;15.90;1.00;;;;;;5047922;28;20843;-69
2023/07/18 03:03:40;;;;;;;6.17;1.43;;;15.90;1.00;;;;;;5030413;28;20406;-68
2023/07/18 03:06:07;;;;;;;8.23;1.52;;;16.00;99.90;;;;;;5048023;28;20437;-68
2023/07/18 03:08:33;;;;;;;6.22;1.80;;;16.20;94.50;;;;;;5047938;28;20421;-69
2023/07/18 03:11:02;;;;;;;6.68;1.50;;;16.10;99.90;;;;;;5047650;28;20433;-69
2023/07/18 03:13:28;;;;;;;5.95;1.40;;;16.10;99.90;;;;;;5045141;28;20439;-69
2023/07/18 03:15:56;;;;;;;5.32;1.30;;;16.10;99.90;;;;;;5047537;28;20472;-69
2023/07/18 03:18:22;;;;;;;7.10;1.60;;;16.10;99.90;;;;;;5047718;28;20560;-69
2023/07/18 03:20:48;;;;;;;5.70;1.40;;;16.00;99.90;;;;;;5045146;28;20406;-69
2023/07/18 03:23:14;;;;;;;5.90;1.55;;;16.00;1.00;;;;;;5048182;28;20428;-68
2023/07/18 03:25:40;;;;;;;5.82;1.30;;;16.00;99.90;;;;;;5048325;28;20527;-68
2023/07/18 03:28:06;;;;;;;5.97;1.30;;;15.80;1.00;;;;;;5047679;28;20385;-68
2023/07/18 03:30:32;;;;;;;5.85;1.58;;;15.70;99.90;;;;;;5046987;28;20397;-68
2023/07/18 03:32:57;;;;;;;6.40;2.00;;;15.70;1.00;;;;;;5047538;28;20493;-68
2023/07/18 03:35:23;;;;;;;5.93;1.90;;;15.80;99.90;;;;;;5046055;28;20401;-69
2023/07/18 03:37:48;;;;;;;6.93;2.00;;;15.80;99.90;;;;;;5047429;28;20578;-68
2023/07/18 03:40:17;;;;;;;6.20;1.65;;;15.80;99.90;;;;;;5047376;28;20394;-68
2023/07/18 03:42:43;;;;;;;5.68;1.40;;;15.70;99.90;;;;;;5047517;28;20768;-68
2023/07/18 03:45:12;;;;;;;5.70;1.70;;;15.70;99.90;;;;;;5044573;28;20778;-68
2023/07/18 03:47:39;;;;;;;6.45;1.85;;;15.80;99.90;;;;;;5047460;28;20770;-68
2023/07/18 03:50:04;;;;;;;5.07;1.30;;;15.70;1.00;;;;;;5047221;28;20393;-68
2023/07/18 03:52:30;;;;;;;6.72;1.70;;;15.60;1.00;;;;;;5047226;28;20408;-68
2023/07/18 03:54:56;;;;;;;8.00;1.60;;;15.60;99.90;;;;;;5047213;28;20499;-68
2023/07/18 03:57:21;;;;;;;9.30;1.60;;;15.60;99.90;;;;;;5047536;28;20390;-69
2023/07/18 03:59:47;;;;;;;5.97;1.60;;;15.70;99.90;;;;;;5043657;28;21624;-69
2023/07/18 04:02:15;;;;;;;5.90;1.70;;;15.60;1.00;;;;;;5047314;28;20508;-68
2023/07/18 04:04:43;;;;;;;7.55;1.70;;;15.60;1.00;;;;;;5047490;28;20385;-69
2023/07/18 04:07:09;;;;;;;7.55;1.90;;;15.70;1.00;;;;;;5047159;28;20682;-68
2023/07/18 04:09:35;;;;;;;7.50;2.20;;;15.60;1.00;;;;;;5047326;28;20758;-69
2023/07/18 04:12:00;;;;;;;6.80;2.20;;;15.50;99.90;;;;;;5047327;28;20393;-69
2023/07/18 04:14:26;;;;;;;8.88;1.80;;;15.70;13.90;;;;;;5046786;28;20474;-69
2023/07/18 04:16:53;;;;;;;6.65;1.67;;;15.70;1.00;;;;;;5046602;28;21298;-69
2023/07/18 04:19:19;;;;;;;6.20;1.50;;;15.80;3.40;;;;;;5046940;28;20488;-69
2023/07/18 04:21:45;;;;;;;6.60;1.90;;;15.80;1.00;;;;;;5046973;28;20426;-70
2023/07/18 04:24:10;;;;;;;7.30;2.00;;;15.80;1.00;;;;;;5048466;28;20394;-69
2023/07/18 04:26:36;;;;;;;5.70;1.85;;;15.90;1.00;;;;;;5047346;28;20390;-68
2023/07/18 04:29:04;;;;;;;6.60;2.10;;;16.00;99.90;;;;;;5046887;28;20817;-69
2023/07/18 04:31:30;;;;;;;6.95;1.88;;;16.10;99.90;;;;;;5044618;28;20393;-69
2023/07/18 04:33:55;;;;;;;6.00;1.70;;;16.10;99.90;;;;;;5047234;28;20388;-69
2023/07/18 04:36:21;;;;;;;6.60;2.00;;;16.10;1.00;;;;;;5047311;28;20603;-69
2023/07/18 04:38:46;;;;;;;7.37;2.20;;;15.90;99.90;;;;;;5046669;28;20751;-69
2023/07/18 04:41:12;;;;;;;8.10;1.70;;;16.00;1.00;;;;;;5047491;28;20382;-69
2023/07/18 04:43:38;;;;;;;7.40;1.80;;;16.10;99.90;;;;;;5046494;28;20730;-68
2023/07/18 04:46:04;;;;;;;6.43;1.83;;;16.10;1.00;;;;;;5047961;28;20493;-68
2023/07/18 04:48:29;;;;;;;6.07;2.00;;;16.20;1.00;;;;;;5047571;28;20385;-68
2023/07/18 04:51:00;;;;;;;9.40;2.10;;;16.30;99.90;;;;;;5050360;28;20407;-68
2023/07/18 04:53:27;;;;;;;6.68;2.35;;;16.60;99.90;;;;;;5050508;28;20473;-69
2023/07/18 04:55:55;;;;;;;7.95;2.50;;;16.90;61.80;;;;;;5050547;28;20381;-68
2023/07/18 04:58:21;;;;;;;7.05;2.00;;;17.00;99.90;;;;;;5050210;28;20393;-68
2023/07/18 05:00:47;;;;;;;7.45;2.28;;;17.20;99.90;;;;;;5050590;28;20472;-69
2023/07/18 05:03:13;;;;;;;8.30;1.80;;;17.70;1.00;;;;;;5050826;28;20559;-69
2023/07/18 05:05:38;;;;;;;7.47;1.80;;;18.60;1.00;;;;;;5047482;28;20749;-69
2023/07/18 05:08:04;;;;;;;8.03;2.10;;;19.70;13.70;;;;;;5042420;28;20424;-68
2023/07/18 05:10:29;;;;;;;7.50;1.90;;;21.10;1.00;;;;;;5033830;28;20409;-69
2023/07/18 05:12:56;;;;;;;9.50;2.15;;;22.50;1.00;;;;;;5049728;28;20464;-69
2023/07/18 05:15:22;;;;;;;8.05;2.20;;;23.70;99.90;;;;;;5049946;28;20517;-69
2023/07/18 05:17:48;;;;;;;8.07;2.53;;;24.60;99.90;;;;;;5036431;28;20899;-70
2023/07/18 05:20:14;;;;;;;6.90;2.50;;;24.90;99.90;;;;;;5045939;28;20518;-70
2023/07/18 05:22:41;;;;;;;7.85;2.30;;;25.20;99.90;;;;;;5043822;28;20456;-70
2023/07/18 05:25:08;;;;;;;6.88;2.25;;;25.60;99.90;;;;;;5040907;28;20418;-69
2023/07/18 05:27:34;;;;;;;7.13;2.50;;;26.40;99.90;;;;;;5041873;28;20967;-69
2023/07/18 05:30:00;;;;;;;8.80;2.75;;;26.70;99.90;;;;;;5038627;28;20527;-69
2023/07/18 05:32:26;;;;;;;7.63;2.63;;;26.90;99.90;;;;;;5041686;28;20418;-69
2023/07/18 05:34:51;;;;;;;8.38;2.50;;;27.70;99.90;;;;;;5028626;28;20461;-70
2023/07/18 05:37:18;;;;;;;10.48;2.95;;;28.20;99.90;;;;;;5030109;28;20389;-69
2023/07/18 05:39:43;;;;;;;7.25;2.38;;;28.10;99.90;;;;;;5029479;28;20470;-68
2023/07/18 05:42:09;;;;;;;7.70;2.42;;;28.00;99.90;;;;;;5029235;28;20514;-69
2023/07/18 05:44:34;;;;;;;8.32;2.83;;;27.60;99.90;;;;;;5028887;28;20394;-70
2023/07/18 05:47:00;;;;;;;6.90;2.30;;;27.50;99.90;;;;;;5028789;28;20391;-70
2023/07/18 05:49:27;;;;;;;9.03;2.30;;;27.80;99.90;;;;;;5028910;28;21234;-70
2023/07/18 05:51:53;;;;;;;7.90;2.90;;;28.40;99.90;;;;;;5029515;28;20474;-70
2023/07/18 05:54:18;;;;;;;7.83;2.73;;;28.80;99.90;;;;;;5029672;28;20471;-70
2023/07/18 05:56:44;;;;;;;11.93;3.20;;;29.10;99.90;;;;;;5030437;28;20383;-69
2023/07/18 05:59:09;;;;;;;7.28;2.40;;;29.10;99.90;;;;;;5028940;28;20387;-69
2023/07/18 06:01:36;;;;;;;7.30;2.70;;;29.20;1.00;;;;;;5029507;28;20492;-69
2023/07/18 06:04:03;;;;;;;8.23;2.65;;;28.10;1.00;;;;;;5038643;28;20399;-69
2023/07/18 06:06:30;;;;;;;9.10;2.70;;;;;;;;;;5053046;28;20405;-69
2023/07/18 06:08:56;;;;;;;9.00;2.70;;;;;;;;;;5066625;28;20368;-69
2023/07/18 06:11:22;;;;;;;10.20;2.90;;;29.60;99.90;;;;;;5049136;28;20474;-69
2023/07/18 06:13:49;;;;;;;7.60;2.90;;;30.10;99.90;;;;;;5049280;28;20807;-70
2023/07/18 06:16:14;;;;;;;7.85;2.95;;;30.40;99.90;;;;;;5049557;28;20684;-69
2023/07/18 06:18:43;;;;;;;10.20;3.38;;;31.00;99.90;;;;;;5048760;28;20436;-69
2023/07/18 06:21:09;;;;;;;8.80;3.70;;;31.00;99.90;;;;;;5049383;28;20446;-69
2023/07/18 06:23:34;;;;;;;8.13;2.97;;;31.20;99.90;;;;;;5064221;28;20498;-70
2023/07/18 06:26:00;;;;;;;8.40;3.40;;;31.20;99.90;;;;;;5069231;28;20399;-70
2023/07/18 06:28:25;;;;;;;9.40;2.77;;;31.70;1.00;;;;;;5068908;28;20376;-70
2023/07/18 06:30:55;;;;;;;8.90;3.00;;;31.90;1.00;;;;;;5068881;28;20807;-69
2023/07/18 06:33:21;;;;;;;7.93;2.65;;;;;;;;;;5076974;28;20392;-69
2023/07/18 06:35:56;;;;;;;8.50;2.70;;;33.20;1.00;;;;;;5073873;28;20429;-70
2023/07/18 06:38:22;;;;;;;7.43;2.70;;;32.90;99.90;;;;;;5068901;28;21205;-69
2023/07/18 06:40:49;;;;;;;8.65;2.75;;;32.60;99.90;;;;;;5051818;28;20475;-70
2023/07/18 06:43:16;;;;;;;10.00;2.95;;;32.50;99.90;;;;;;5048314;28;20786;-70
2023/07/18 06:45:46;;;;;;;6.00;1.67;;;32.60;99.90;;;;;;5049528;28;20898;-70
2023/07/18 06:48:12;;;;;;;8.10;1.90;;;32.70;99.90;;;;;;5050289;28;20440;-70
2023/07/18 06:50:44;;;;;;;7.80;2.40;;;32.50;99.90;;;;;;5049349;28;20417;-70
2023/07/18 06:53:10;;;;;;;6.70;1.97;;;32.00;99.90;;;;;;5048775;28;20403;-70
2023/07/18 06:55:35;;;;;;;6.40;1.83;;;32.30;99.90;;;;;;5048515;28;20405;-70
2023/07/18 06:58:01;;;;;;;6.63;2.23;;;32.40;99.90;;;;;;5048367;28;20394;-69
2023/07/18 07:00:26;;;;;;;6.65;1.85;;;32.50;99.90;;;;;;5048187;28;20405;-69
2023/07/18 07:02:52;;;;;;;6.27;1.77;;;32.70;99.90;;;;;;5048105;28;20441;-69
2023/07/18 07:05:18;;;;;;;6.90;1.80;;;33.50;99.90;;;;;;5048328;28;20382;-70
2023/07/18 07:07:43;;;;;;;10.27;2.13;;;33.90;99.90;;;;;;5048309;28;20390;-70
2023/07/18 07:10:09;;;;;;;6.70;1.80;;;33.80;99.90;;;;;;5048214;28;20393;-70
2023/07/18 07:12:35;;;;;;;6.45;1.42;;;34.60;99.90;;;;;;5048046;28;20741;-70
2023/07/18 07:15:01;;;;;;;6.57;2.00;;;35.00;99.90;;;;;;5066155;28;20467;-70
2023/07/18 07:17:26;;;;;;;8.43;2.05;;;34.70;99.90;;;;;;5067965;28;20411;-70
2023/07/18 07:19:53;;;;;;;6.60;1.80;;;34.70;99.90;;;;;;5068053;28;20406;-70
2023/07/18 07:22:19;;;;;;;6.82;1.90;;;34.50;99.90;;;;;;5062591;28;20423;-70
2023/07/18 07:24:46;;;;;;;5.53;1.50;;;34.50;99.90;;;;;;5057518;28;20381;-70
2023/07/18 07:27:13;;;;;;;8.00;2.37;;;34.80;99.90;;;;;;5059945;28;20400;-70
2023/07/18 07:29:41;;;;;;;9.35;1.90;;;34.50;99.90;;;;;;5068220;28;20437;-70
2023/07/18 07:32:07;;;;;;;6.57;1.90;;;34.90;99.90;;;;;;5051167;28;20398;-70
2023/07/18 07:34:33;;;;;;;6.20;1.70;;;34.20;99.90;;;;;;5047864;28;20385;-70
2023/07/18 07:36:58;;;;;;;7.00;1.67;;;34.70;99.90;;;;;;5048066;28;20423;-70
2023/07/18 07:39:24;;;;;;;7.17;2.10;;;35.20;99.90;;;;;;5054484;28;20403;-70
2023/07/18 07:41:50;;;;;;;5.87;1.33;;;35.60;99.90;;;;;;5067983;28;20407;-71
2023/07/18 07:44:15;;;;;;;6.05;1.40;;;34.90;99.90;;;;;;5067981;28;20387;-71
2023/07/18 07:46:41;;;;;;;6.27;1.70;;;35.00;99.90;;;;;;5068471;28;20906;-70
2023/07/18 07:49:06;;;;;;;5.85;1.30;;;36.00;99.90;;;;;;5068152;28;20432;-70
2023/07/18 07:51:35;;;;;;;6.30;1.90;;;35.90;99.90;;;;;;5067904;28;20407;-70
2023/07/18 07:54:03;;;;;;;6.03;1.70;;;36.10;99.90;;;;;;5067618;28;20387;-70
2023/07/18 07:56:29;;;;;;;7.90;1.90;;;36.00;99.90;;;;;;5061524;28;20397;-70
2023/07/18 07:58:55;;;;;;;5.60;1.80;;;36.20;99.90;;;;;;5048512;28;20381;-70
2023/07/18 08:01:20;;;;;;;8.03;2.00;;;35.90;99.90;;;;;;5049429;28;20452;-70
2023/07/18 08:03:46;;;;;;;7.23;1.60;;;35.80;99.90;;;;;;5047841;28;20480;-70
2023/07/18 08:06:12;;;;;;;6.63;1.90;;;35.40;99.90;;;;;;5048050;28;20393;-70
2023/07/18 08:08:37;;;;;;;6.80;1.60;;;35.70;99.90;;;;;;5047794;28;20389;-70
2023/07/18 08:11:03;;;;;;;6.43;1.23;;;35.80;99.90;;;;;;5047633;28;20401;-70
2023/07/18 08:13:29;;;;;;;7.40;1.50;;;36.00;99.90;;;;;;5048253;28;20392;-70
2023/07/18 08:15:55;;;;;;;7.13;1.50;;;35.90;99.90;;;;;;5047240;28;20457;-70
2023/07/18 08:18:21;;;;;;;5.68;1.50;;;35.70;99.90;;;;;;5047047;28;20436;-70
2023/07/18 08:20:47;;;;;;;7.10;1.60;;;36.40;99.90;;;;;;5047910;28;20405;-71
2023/07/18 08:23:14;;;;;;;6.50;1.40;;;36.30;99.90;;;;;;5051618;28;20444;-70
2023/07/18 08:25:43;;;;;;;5.93;1.60;;;35.90;99.90;;;;;;5051753;28;20385;-70
2023/07/18 08:28:09;;;;;;;7.18;1.42;;;35.70;99.90;;;;;;5051013;28;20924;-70
2023/07/18 08:30:34;;;;;;;7.13;1.90;;;36.20;99.90;;;;;;5057528;28;20388;-70
2023/07/18 08:33:00;;;;;;;11.37;1.70;;;36.30;99.90;;;;;;5071028;28;20469;-70
2023/07/18 08:35:26;;;;;;;7.40;1.60;;;36.00;99.90;;;;;;5071483;28;20394;-70
2023/07/18 08:37:51;;;;;;;6.80;1.60;;;36.30;99.90;;;;;;5071010;28;20840;-70
2023/07/18 08:40:17;;;;;;;5.87;1.43;;;36.50;99.90;;;;;;5071370;28;20398;-70
2023/07/18 08:42:42;;;;;;;6.40;1.73;;;36.90;99.90;;;;;;5071301;28;20510;-70
2023/07/18 08:45:13;;;;;;;6.60;1.80;;;37.40;99.90;;;;;;5071483;28;20485;-70
2023/07/18 08:47:41;;;;;;;6.00;1.50;;;37.70;99.90;;;;;;5071069;28;20402;-70
2023/07/18 08:50:10;;;;;;;6.70;1.40;;;37.40;99.90;;;;;;5071183;28;20898;-70
2023/07/18 08:52:36;;;;;;;7.30;1.80;;;37.10;99.90;;;;;;5070545;28;20388;-70
2023/07/18 08:55:03;;;;;;;5.73;1.47;;;36.90;99.90;;;;;;5070932;28;20475;-70
2023/07/18 08:57:30;;;;;;;7.90;1.70;;;37.40;99.90;;;;;;5070731;28;20455;-70
2023/07/18 08:59:57;;;;;;;5.95;1.52;;;37.50;99.90;;;;;;5071557;28;20391;-70
2023/07/18 09:02:23;;;;;;;7.25;1.60;;;37.70;99.90;;;;;;5071442;28;20415;-70
2023/07/18 09:04:48;;;;;;;6.10;1.03;;;37.30;99.90;;;;;;5070715;28;21024;-71
2023/07/18 09:07:14;;;;;;;5.60;1.30;;;38.30;99.90;;;;;;5071646;28;20392;-70
2023/07/18 09:09:47;;;;;;;6.05;1.20;;;38.60;99.90;;;;;;5071241;28;20448;-70
2023/07/18 09:12:13;;;;;;;6.30;1.20;;;38.60;99.90;;;;;;5071648;28;20398;-70
2023/07/18 09:14:39;;;;;;;6.07;1.50;;;38.10;99.90;;;;;;5071246;28;20403;-70
2023/07/18 09:17:08;;;;;;;6.37;1.47;;;37.80;99.90;;;;;;5070501;28;20919;-70
2023/07/18 09:19:45;;;;;;;6.10;1.50;;;38.70;99.90;;;;;;5070355;28;20390;-71
2023/07/18 09:22:12;;;;;;;7.13;1.58;;;39.10;99.90;;;;;;5071565;28;20423;-70
2023/07/18 09:24:39;;;;;;;5.85;1.48;;;38.90;99.90;;;;;;5070402;28;20506;-71
2023/07/18 09:27:14;;;;;;;6.88;1.42;;;39.50;99.90;;;;;;5070800;28;20391;-70
2023/07/18 09:29:47;;;;;;;5.33;1.00;;;38.90;99.90;;;;;;5074484;28;20426;-70
2023/07/18 09:32:19;;;;;;;5.40;1.58;;;39.50;99.90;;;;;;5054760;28;20736;-71
2023/07/18 09:34:52;;;;;;;9.00;1.90;;;40.20;99.90;;;;;;5054298;28;20473;-72
2023/07/18 09:37:18;;;;;;;5.90;1.70;;;40.50;99.90;;;;;;5054658;28;20393;-70
2023/07/18 09:39:45;;;;;;;5.47;1.40;;;40.90;99.90;;;;;;5054893;28;20467;-70
2023/07/18 09:42:11;;;;;;;5.70;1.67;;;40.50;99.90;;;;;;5051140;28;20421;-70
2023/07/18 09:44:39;;;;;;;10.55;1.85;;;40.10;99.90;;;;;;5050144;28;20764;-71
2023/07/18 09:47:06;;;;;;;7.53;1.60;;;40.10;99.90;;;;;;5050509;28;20893;-70
2023/07/18 09:49:33;;;;;;;7.73;1.60;;;39.90;99.90;;;;;;5050174;28;20834;-70
2023/07/18 09:52:05;;;;;;;6.88;2.00;;;39.30;99.90;;;;;;5050727;28;20758;-71
2023/07/18 09:54:32;;;;;;;7.50;1.65;;;37.40;99.90;;;;;;5050676;28;20381;-71
2023/07/18 09:57:05;;;;;;;5.85;1.40;;;35.90;99.90;;;;;;5050085;28;20397;-71
2023/07/18 09:59:35;;;;;;;7.40;1.90;;;36.20;99.90;;;;;;5051213;28;20381;-71
2023/07/18 10:02:05;;;;;;;7.00;1.50;;;35.60;99.90;;;;;;5051960;28;20418;-71
2023/07/18 10:04:34;;;;;;;7.72;2.00;;;34.80;99.90;;;;;;5049938;28;20435;-70
2023/07/18 10:07:02;;;;;;;7.43;1.92;;;34.30;99.90;;;;;;5049912;28;20529;-71
2023/07/18 10:09:28;;;;;;;7.50;1.50;;;33.70;99.90;;;;;;5049973;28;21110;-69
2023/07/18 10:12:02;;;;;;;6.00;1.73;;;33.00;99.90;;;;;;5052003;28;20415;-70
2023/07/18 10:14:28;;;;;;;5.70;1.50;;;32.30;99.90;;;;;;5051866;28;20389;-70
2023/07/18 10:16:54;;;;;;;6.85;1.50;;;30.80;99.90;;;;;;5049558;28;20386;-70
2023/07/18 10:19:24;;;;;;;6.10;2.00;;;30.20;99.90;;;;;;5049804;28;20878;-70
2023/07/18 10:21:51;;;;;;;7.00;2.17;;;29.80;99.90;;;;;;5049849;28;20420;-69
2023/07/18 10:24:24;;;;;;;7.28;1.98;;;29.70;99.90;;;;;;5049414;28;20830;-70
2023/07/18 10:27:16;;;;;;;6.60;1.63;;;29.50;99.90;;;;;;5049226;28;20389;-70
2023/07/18 10:30:00;;;;;;;6.47;1.80;;;29.40;99.90;;;;;;5046420;28;20393;-70
2023/07/18 10:32:31;;;;;;;6.47;1.75;;;29.40;99.90;;;;;;5029536;28;20409;-69
2023/07/18 10:34:56;;;;;;;7.63;1.63;;;29.50;99.90;;;;;;5029055;28;20883;-69
2023/07/18 10:37:26;;;;;;;6.70;1.87;;;29.40;99.90;;;;;;5028889;28;20387;-69
2023/07/18 10:39:53;;;;;;;7.85;1.95;;;28.90;99.90;;;;;;5028359;28;20391;-70
2023/07/18 10:42:20;;;;;;;8.95;1.95;;;28.20;99.90;;;;;;5010671;28;20426;-70
2023/07/18 10:44:47;;;;;;;7.68;2.30;;;28.20;99.90;;;;;;5028324;28;20386;-69
2023/07/18 10:47:17;;;;;;;7.22;2.50;;;28.10;99.90;;;;;;5029478;28;20943;-69
2023/07/18 10:49:47;;;;;;;6.60;1.80;;;28.30;99.90;;;;;;5029647;28;20497;-69
2023/07/18 10:52:14;;;;;;;6.10;1.70;;;29.00;99.90;;;;;;5029511;28;20384;-70
2023/07/18 10:54:49;;;;;;;8.10;2.07;;;29.70;99.90;;;;;;5029438;28;20395;-70
2023/07/18 10:57:15;;;;;;;6.30;2.10;;;30.40;99.90;;;;;;5029672;28;20399;-70
2023/07/18 10:59:44;;;;;;;6.50;1.60;;;30.30;99.90;;;;;;5029224;28;20399;-69
2023/07/18 11:02:11;;;;;;;6.80;2.03;;;30.50;99.90;;;;;;5029154;28;20886;-69
2023/07/18 11:04:36;;;;;;;7.25;1.95;;;30.60;99.90;;;;;;5028926;28;20474;-69
2023/07/18 11:07:02;;;;;;;7.28;1.90;;;30.70;99.90;;;;;;5028701;28;20561;-70
2023/07/18 11:09:27;;;;;;;7.05;1.88;;;30.80;99.90;;;;;;5029105;28;20483;-70
2023/07/18 11:11:54;;;;;;;6.40;1.70;;;30.50;99.90;;;;;;5028699;28;20387;-70
2023/07/18 11:14:20;;;;;;;8.50;1.85;;;30.30;99.90;;;;;;5028337;28;20449;-70
2023/07/18 11:16:46;;;;;;;6.63;1.50;;;30.00;99.90;;;;;;5028509;28;20387;-70
2023/07/18 11:19:13;;;;;;;7.00;2.25;;;29.30;99.90;;;;;;5029058;28;20791;-70
2023/07/18 11:21:39;;;;;;;7.87;1.97;;;28.70;99.90;;;;;;5028851;28;20775;-70
2023/07/18 11:24:05;;;;;;;6.95;1.80;;;28.90;99.90;;;;;;5029056;28;20395;-70
2023/07/18 11:26:31;;;;;;;8.07;1.80;;;28.70;99.90;;;;;;5029253;28;20705;-69
2023/07/18 11:28:57;;;;;;;7.20;2.00;;;28.60;99.90;;;;;;5029276;28;20383;-70
2023/07/18 11:31:30;;;;;;;6.00;1.70;;;28.60;99.90;;;;;;5053472;28;20400;-70
2023/07/18 11:33:58;;;;;;;10.50;2.10;;;28.70;99.90;;;;;;5067808;28;20444;-70
2023/07/18 11:36:31;;;;;;;8.27;2.10;;;28.50;99.90;;;;;;5068044;28;20379;-70
2023/07/18 11:39:06;;;;;;;7.93;2.35;;;28.30;99.90;;;;;;5068964;28;20379;-69
2023/07/18 11:41:39;;;;;;;8.52;2.35;;;28.30;99.90;;;;;;5068225;28;20388;-69
2023/07/18 11:44:06;;;;;;;7.90;2.17;;;28.10;99.90;;;;;;5068022;28;20392;-69
2023/07/18 11:46:45;;;;;;;7.28;1.80;;;28.10;99.90;;;;;;5068100;28;20392;-69
2023/07/18 11:49:12;;;;;;;8.97;2.20;;;27.90;99.90;;;;;;5068189;28;20384;-69
2023/07/18 11:51:40;;;;;;;7.90;2.60;;;28.00;99.90;;;;;;5067966;28;20758;-69
2023/07/18 11:54:07;;;;;;;6.40;2.03;;;28.20;99.90;;;;;;5067962;28;20396;-69
2023/07/18 11:56:34;;;;;;;8.57;1.98;;;28.40;99.90;;;;;;5070611;28;20403;-70
2023/07/18 11:59:01;;;;;;;6.70;1.90;;;28.70;99.90;;;;;;5057148;28;20391;-69
2023/07/18 12:01:27;;;;;;;7.60;2.17;;;28.80;99.90;;;;;;5055798;28;20404;-70
2023/07/18 12:03:54;;;;;;;7.50;2.30;;;29.00;99.90;;;;;;5073075;28;20419;-69
2023/07/18 12:06:21;;;;;;;8.80;2.43;;;29.20;99.90;;;;;;5073862;28;20458;-70
2023/07/18 12:08:48;;;;;;;6.30;2.13;;;29.20;99.90;;;;;;5072742;28;20541;-70
2023/07/18 12:11:13;;;;;;;9.32;2.28;;;29.40;99.90;;;;;;5057236;28;20540;-70
2023/07/18 12:13:41;;;;;;;7.70;2.75;;;29.70;99.90;;;;;;5074580;28;20442;-70
2023/07/18 12:16:07;;;;;;;10.23;2.35;;;29.90;99.90;;;;;;5055399;28;20391;-70
2023/07/18 12:18:33;;;;;;;6.78;2.15;;;30.20;99.90;;;;;;5073378;28;20418;-70
2023/07/18 12:20:58;;;;;;;9.52;1.90;;;29.90;99.90;;;;;;5072839;28;20856;-70
2023/07/18 12:23:25;;;;;;;6.78;1.90;;;29.50;99.90;;;;;;5072030;28;20422;-70
2023/07/18 12:25:50;;;;;;;6.20;2.20;;;29.50;99.90;;;;;;5072222;28;20474;-70
2023/07/18 12:28:16;;;;;;;9.50;2.40;;;29.60;99.90;;;;;;5072164;28;20410;-70
2023/07/18 12:30:41;;;;;;;8.60;3.00;;;29.70;99.90;;;;;;5064865;28;20400;-70
2023/07/18 12:33:08;;;;;;;7.10;2.50;;;29.80;99.90;;;;;;5051792;28;20451;-70
2023/07/18 12:35:33;;;;;;;7.10;2.45;;;29.80;99.90;;;;;;5051378;28;20970;-70
2023/07/18 12:37:59;;;;;;;6.63;2.37;;;30.00;99.90;;;;;;5051414;28;20405;-70
2023/07/18 12:40:25;;;;;;;7.90;2.20;;;29.90;99.90;;;;;;5050919;28;20778;-70
2023/07/18 12:42:51;;;;;;;9.23;2.40;;;29.90;99.90;;;;;;5051110;28;20432;-70
2023/07/18 12:45:17;;;;;;;10.70;2.80;;;30.10;99.90;;;;;;5051220;28;20415;-70
2023/07/18 12:47:43;;;;;;;7.90;2.40;;;30.30;99.90;;;;;;5051710;28;20481;-70